sensor_id;sensor_type;location;lat;lon;timestamp;pressure;altitude;pressure_sealevel;temperature;humidity
62111;BME280;48102;47.526;19.072;2023-11-22T04:40:27;100416.19;;;2.36;100.00
62111;BME280;48102;47.526;19.072;2023-11-22T04:43:30;100431.00;;;2.31;100.00
62111;BME280;48102;47.526;19.072;2023-11-22T04:46:33;100436.19;;;2.32;100.00
62111;BME280;48102;47.526;19.072;2023-11-22T04:49:36;100434.34;;;2.39;100.00
62111;BME280;48102;47.526;19.072;2023-11-22T04:52:39;100450.09;;;2.30;100.00
62111;BME280;48102;47.526;19.072;2023-11-22T04:55:42;100454.31;;;2.37;100.00
62111;BME280;48102;47.526;19.072;2023-11-22T04:58:45;100458.66;;;2.36;100.00
62111;BME280;48102;47.526;19.072;2023-11-22T05:01:48;100450.78;;;2.41;100.00
62111;BME280;48102;47.526;19.072;2023-11-22T05:04:51;100444.00;;;2.31;100.00
62111;BME280;48102;47.526;19.072;2023-11-22T05:07:55;100452.59;;;2.36;100.00
62111;BME280;48102;47.526;19.072;2023-11-22T05:10:58;100453.53;;;2.33;100.00
62111;BME280;48102;47.526;19.072;2023-11-22T05:14:01;100459.53;;;2.35;100.00
62111;BME280;48102;47.526;19.072;2023-11-22T05:17:04;100462.97;;;2.37;100.00
62111;BME280;48102;47.526;19.072;2023-11-22T05:20:08;100476.84;;;2.38;100.00
62111;BME280;48102;47.526;19.072;2023-11-22T05:23:14;100479.41;;;2.39;100.00
62111;BME280;48102;47.526;19.072;2023-11-22T05:26:17;100485.66;;;2.29;100.00
62111;BME280;48102;47.526;19.072;2023-11-22T05:29:20;100485.75;;;2.21;100.00
62111;BME280;48102;47.526;19.072;2023-11-22T05:32:25;100491.06;;;2.12;100.00
62111;BME280;48102;47.526;19.072;2023-11-22T05:35:28;100487.56;;;2.13;100.00
62111;BME280;48102;47.526;19.072;2023-11-22T05:38:32;100492.88;;;2.06;100.00
62111;BME280;48102;47.526;19.072;2023-11-22T05:41:36;100503.22;;;2.07;100.00
62111;BME280;48102;47.526;19.072;2023-11-22T05:44:39;100505.84;;;2.09;100.00
62111;BME280;48102;47.526;19.072;2023-11-22T05:47:42;100510.12;;;2.13;100.00
62111;BME280;48102;47.526;19.072;2023-11-22T05:50:46;100520.47;;;2.17;100.00
62111;BME280;48102;47.526;19.072;2023-11-22T05:53:50;100526.38;;;2.27;100.00
62111;BME280;48102;47.526;19.072;2023-11-22T05:56:53;100522.19;;;2.17;100.00
62111;BME280;48102;47.526;19.072;2023-11-22T05:59:57;100523.88;;;2.21;100.00
62111;BME280;48102;47.526;19.072;2023-11-22T06:03:00;100529.91;;;2.23;100.00
62111;BME280;48102;47.526;19.072;2023-11-22T06:06:03;100530.84;;;2.17;100.00
62111;BME280;48102;47.526;19.072;2023-11-22T06:09:06;100534.28;;;2.19;100.00
62111;BME280;48102;47.526;19.072;2023-11-22T06:12:09;100536.84;;;2.22;100.00
62111;BME280;48102;47.526;19.072;2023-11-22T06:15:12;100540.34;;;2.20;100.00
62111;BME280;48102;47.526;19.072;2023-11-22T06:18:18;100555.25;;;2.06;100.00
62111;BME280;48102;47.526;19.072;2023-11-22T06:21:21;100558.59;;;2.17;100.00
62111;BME280;48102;47.526;19.072;2023-11-22T06:24:27;100561.81;;;2.36;100.00
62111;BME280;48102;47.526;19.072;2023-11-22T06:27:30;100567.84;;;2.39;100.00
62111;BME280;48102;47.526;19.072;2023-11-22T06:30:35;100571.22;;;2.46;100.00
62111;BME280;48102;47.526;19.072;2023-11-22T06:33:38;100576.25;;;2.60;100.00
62111;BME280;48102;47.526;19.072;2023-11-22T06:36:41;100579.63;;;2.68;100.00
62111;BME280;48102;47.526;19.072;2023-11-22T06:39:44;100595.03;;;2.80;100.00
62111;BME280;48102;47.526;19.072;2023-11-22T06:42:49;100594.94;;;2.88;100.00
62111;BME280;48102;47.526;19.072;2023-11-22T06:45:52;100596.41;;;3.06;100.00
62111;BME280;48102;47.526;19.072;2023-11-22T06:48:55;100604.84;;;3.21;100.00
62111;BME280;48102;47.526;19.072;2023-11-22T06:51:59;100602.06;;;3.32;100.00
62111;BME280;48102;47.526;19.072;2023-11-22T06:55:02;100603.72;;;3.36;100.00
62111;BME280;48102;47.526;19.072;2023-11-22T06:58:05;100613.06;;;3.51;100.00
62111;BME280;48102;47.526;19.072;2023-11-22T07:01:10;100611.16;;;3.61;100.00
62111;BME280;48102;47.526;19.072;2023-11-22T07:04:17;100617.84;;;3.77;100.00
62111;BME280;48102;47.526;19.072;2023-11-22T07:07:20;100627.41;;;3.76;100.00
62111;BME280;48102;47.526;19.072;2023-11-22T07:10:23;100631.38;;;3.96;100.00
62111;BME280;48102;47.526;19.072;2023-11-22T07:13:27;100638.59;;;4.30;100.00
62111;BME280;48102;47.526;19.072;2023-11-22T07:16:30;100638.81;;;4.62;100.00
62111;BME280;48102;47.526;19.072;2023-11-22T07:19:34;100644.56;;;4.80;100.00
62111;BME280;48102;47.526;19.072;2023-11-22T07:22:41;100647.34;;;5.09;100.00
62111;BME280;48102;47.526;19.072;2023-11-22T07:25:45;100651.03;;;5.39;100.00
62111;BME280;48102;47.526;19.072;2023-11-22T07:28:49;100654.06;;;5.94;100.00
62111;BME280;48102;47.526;19.072;2023-11-22T07:31:52;100658.44;;;5.93;100.00
62111;BME280;48102;47.526;19.072;2023-11-22T07:34:54;100646.97;;;5.99;100.00
62111;BME280;48102;47.526;19.072;2023-11-22T07:37:59;100649.69;;;5.94;100.00
62111;BME280;48102;47.526;19.072;2023-11-22T07:41:02;100645.25;;;5.98;100.00
62111;BME280;48102;47.526;19.072;2023-11-22T07:44:05;100648.69;;;6.00;100.00
62111;BME280;48102;47.526;19.072;2023-11-22T07:47:07;100647.81;;;5.99;100.00
62111;BME280;48102;47.526;19.072;2023-11-22T07:50:12;100653.06;;;5.99;100.00
62111;BME280;48102;47.526;19.072;2023-11-22T07:53:18;100658.09;;;6.07;100.00
62111;BME280;48102;47.526;19.072;2023-11-22T07:56:21;100659.00;;;6.06;100.00
62111;BME280;48102;47.526;19.072;2023-11-22T07:59:24;100672.00;;;6.09;100.00
62111;BME280;48102;47.526;19.072;2023-11-22T08:02:27;100683.75;;;6.27;100.00
62111;BME280;48102;47.526;19.072;2023-11-22T08:05:31;100675.47;;;6.42;100.00
62111;BME280;48102;47.526;19.072;2023-11-22T08:08:39;100679.56;;;6.52;100.00
62111;BME280;48102;47.526;19.072;2023-11-22T08:11:43;100685.06;;;6.73;100.00
62111;BME280;48102;47.526;19.072;2023-11-22T08:14:46;100682.28;;;6.79;100.00
62111;BME280;48102;47.526;19.072;2023-11-22T08:17:49;100687.41;;;6.84;100.00
62111;BME280;48102;47.526;19.072;2023-11-22T08:20:52;100700.16;;;6.94;100.00
62111;BME280;48102;47.526;19.072;2023-11-22T08:23:55;100703.28;;;7.09;100.00
62111;BME280;48102;47.526;19.072;2023-11-22T08:26:58;100702.84;;;7.22;100.00
62111;BME280;48102;47.526;19.072;2023-11-22T08:30:02;100712.78;;;7.41;100.00
62111;BME280;48102;47.526;19.072;2023-11-22T08:33:07;100709.53;;;7.61;100.00
62111;BME280;48102;47.526;19.072;2023-11-22T08:36:11;100713.78;;;7.65;100.00
62111;BME280;48102;47.526;19.072;2023-11-22T08:39:13;100709.31;;;7.67;100.00
62111;BME280;48102;47.526;19.072;2023-11-22T08:42:16;100708.84;;;7.82;100.00
62111;BME280;48102;47.526;19.072;2023-11-22T08:45:20;100711.47;;;8.09;100.00
62111;BME280;48102;47.526;19.072;2023-11-22T08:48:24;100712.31;;;8.84;100.00
62111;BME280;48102;47.526;19.072;2023-11-22T08:51:27;100720.22;;;9.53;100.00
62111;BME280;48102;47.526;19.072;2023-11-22T08:54:30;100713.62;;;9.43;100.00
62111;BME280;48102;47.526;19.072;2023-11-22T08:57:37;100722.06;;;9.29;100.00
62111;BME280;48102;47.526;19.072;2023-11-22T09:00:41;100725.03;;;9.20;100.00
62111;BME280;48102;47.526;19.072;2023-11-22T09:03:44;100722.00;;;9.07;100.00
62111;BME280;48102;47.526;19.072;2023-11-22T09:06:47;100718.84;;;8.97;100.00
62111;BME280;48102;47.526;19.072;2023-11-22T09:09:50;100725.19;;;8.92;100.00
62111;BME280;48102;47.526;19.072;2023-11-22T09:13:13;100719.63;;;8.76;100.00
62111;BME280;48102;47.526;19.072;2023-11-22T09:16:18;100722.66;;;8.65;100.00
62111;BME280;48102;47.526;19.072;2023-11-22T09:19:24;100719.38;;;8.59;100.00
62111;BME280;48102;47.526;19.072;2023-11-22T09:22:27;100723.69;;;8.61;100.00
62111;BME280;48102;47.526;19.072;2023-11-22T09:25:30;100728.66;;;8.69;100.00
62111;BME280;48102;47.526;19.072;2023-11-22T09:28:35;100727.22;;;8.60;100.00
62111;BME280;48102;47.526;19.072;2023-11-22T09:31:40;100721.41;;;8.50;100.00
62111;BME280;48102;47.526;19.072;2023-11-22T09:34:44;100730.91;;;8.54;100.00
62111;BME280;48102;47.526;19.072;2023-11-22T09:37:48;100726.78;;;8.47;100.00
62111;BME280;48102;47.526;19.072;2023-11-22T09:40:52;100733.44;;;8.58;100.00
62111;BME280;48102;47.526;19.072;2023-11-22T09:43:55;100742.56;;;8.72;100.00
62111;BME280;48102;47.526;19.072;2023-11-22T09:46:58;100736.97;;;8.82;100.00
62111;BME280;48102;47.526;19.072;2023-11-22T09:50:01;100747.06;;;8.92;100.00
62111;BME280;48102;47.526;19.072;2023-11-22T09:53:11;100745.37;;;8.91;100.00
62111;BME280;48102;47.526;19.072;2023-11-22T09:56:17;100756.13;;;9.09;100.00
62111;BME280;48102;47.526;19.072;2023-11-22T09:59:22;100755.31;;;9.07;100.00
62111;BME280;48102;47.526;19.072;2023-11-22T10:02:26;100752.00;;;9.25;100.00
62111;BME280;48102;47.526;19.072;2023-11-22T10:05:31;100742.91;;;9.34;100.00
62111;BME280;48102;47.526;19.072;2023-11-22T10:08:34;100739.94;;;9.43;100.00
62111;BME280;48102;47.526;19.072;2023-11-22T10:11:40;100746.16;;;9.40;100.00
62111;BME280;48102;47.526;19.072;2023-11-22T10:14:47;100752.25;;;9.41;100.00
62111;BME280;48102;47.526;19.072;2023-11-22T10:17:55;100748.75;;;9.42;100.00
62111;BME280;48102;47.526;19.072;2023-11-22T10:21:03;100750.00;;;9.53;100.00
62111;BME280;48102;47.526;19.072;2023-11-22T10:24:06;100758.91;;;9.51;100.00
62111;BME280;48102;47.526;19.072;2023-11-22T10:27:12;100754.72;;;9.45;100.00
62111;BME280;48102;47.526;19.072;2023-11-22T10:30:15;100757.12;;;9.51;100.00
62111;BME280;48102;47.526;19.072;2023-11-22T10:33:18;100761.38;;;9.54;100.00
62111;BME280;48102;47.526;19.072;2023-11-22T10:36:23;100769.56;;;9.70;100.00
62111;BME280;48102;47.526;19.072;2023-11-22T10:39:25;100769.25;;;9.77;100.00
62111;BME280;48102;47.526;19.072;2023-11-22T10:42:29;100774.03;;;9.90;100.00
62111;BME280;48102;47.526;19.072;2023-11-22T10:45:32;100790.81;;;9.87;100.00
62111;BME280;48102;47.526;19.072;2023-11-22T10:48:36;100806.56;;;9.89;100.00
62111;BME280;48102;47.526;19.072;2023-11-22T10:51:39;100803.78;;;9.92;100.00
62111;BME280;48102;47.526;19.072;2023-11-22T10:54:49;100803.84;;;9.90;100.00
62111;BME280;48102;47.526;19.072;2023-11-22T10:57:56;100802.38;;;9.83;100.00
62111;BME280;48102;47.526;19.072;2023-11-22T11:01:04;100807.38;;;9.67;100.00
62111;BME280;48102;47.526;19.072;2023-11-22T11:04:13;100811.47;;;9.74;100.00
62111;BME280;48102;47.526;19.072;2023-11-22T11:07:21;100816.00;;;9.71;100.00
62111;BME280;48102;47.526;19.072;2023-11-22T11:10:27;100829.31;;;9.68;100.00
62111;BME280;48102;47.526;19.072;2023-11-22T11:13:31;100839.69;;;9.71;99.57
62111;BME280;48102;47.526;19.072;2023-11-22T11:16:37;100832.28;;;9.59;98.89
62111;BME280;48102;47.526;19.072;2023-11-22T11:19:41;100840.37;;;9.52;100.00
62111;BME280;48102;47.526;19.072;2023-11-22T11:22:46;100846.69;;;9.48;97.30
62111;BME280;48102;47.526;19.072;2023-11-22T11:25:50;100849.94;;;9.32;96.92
62111;BME280;48102;47.526;19.072;2023-11-22T11:28:54;100846.84;;;9.20;100.00
62111;BME280;48102;47.526;19.072;2023-11-22T11:31:57;100851.69;;;9.08;100.00
62111;BME280;48102;47.526;19.072;2023-11-22T11:35:01;100845.78;;;9.01;100.00
62111;BME280;48102;47.526;19.072;2023-11-22T11:38:06;100854.31;;;9.08;100.00
62111;BME280;48102;47.526;19.072;2023-11-22T11:41:11;100852.12;;;9.19;100.00
62111;BME280;48102;47.526;19.072;2023-11-22T11:44:17;100862.62;;;9.20;100.00
62111;BME280;48102;47.526;19.072;2023-11-22T11:47:22;100866.91;;;8.98;100.00
62111;BME280;48102;47.526;19.072;2023-11-22T11:50:25;100866.59;;;9.07;100.00
62111;BME280;48102;47.526;19.072;2023-11-22T11:53:29;100852.69;;;9.03;100.00
62111;BME280;48102;47.526;19.072;2023-11-22T11:56:34;100853.72;;;8.99;100.00
62111;BME280;48102;47.526;19.072;2023-11-22T11:59:39;100853.63;;;9.02;100.00
62111;BME280;48102;47.526;19.072;2023-11-22T12:02:45;100856.34;;;8.99;100.00
62111;BME280;48102;47.526;19.072;2023-11-22T12:05:48;100860.84;;;8.96;100.00
62111;BME280;48102;47.526;19.072;2023-11-22T12:08:54;100855.53;;;8.97;100.00
62111;BME280;48102;47.526;19.072;2023-11-22T12:11:59;100859.25;;;8.92;100.00
62111;BME280;48102;47.526;19.072;2023-11-22T12:15:06;100867.03;;;8.95;100.00
62111;BME280;48102;47.526;19.072;2023-11-22T12:18:14;100874.22;;;8.90;100.00
62111;BME280;48102;47.526;19.072;2023-11-22T12:21:19;100873.19;;;8.94;100.00
62111;BME280;48102;47.526;19.072;2023-11-22T12:24:23;100874.22;;;8.90;100.00
62111;BME280;48102;47.526;19.072;2023-11-22T12:27:26;100884.06;;;8.83;100.00
62111;BME280;48102;47.526;19.072;2023-11-22T12:30:33;100884.31;;;8.75;100.00
62111;BME280;48102;47.526;19.072;2023-11-22T12:33:37;100881.28;;;8.61;100.00
62111;BME280;48102;47.526;19.072;2023-11-22T12:36:45;100886.47;;;8.64;100.00
62111;BME280;48102;47.526;19.072;2023-11-22T12:39:50;100888.63;;;8.51;100.00
62111;BME280;48102;47.526;19.072;2023-11-22T12:42:55;100901.06;;;8.46;100.00
62111;BME280;48102;47.526;19.072;2023-11-22T12:46:03;100906.19;;;8.49;100.00
62111;BME280;48102;47.526;19.072;2023-11-22T12:49:06;100920.44;;;8.42;100.00
62111;BME280;48102;47.526;19.072;2023-11-22T12:52:09;100922.22;;;8.12;100.00
62111;BME280;48102;47.526;19.072;2023-11-22T12:55:12;100931.25;;;8.02;100.00
62111;BME280;48102;47.526;19.072;2023-11-22T12:58:16;100942.37;;;8.10;100.00
62111;BME280;48102;47.526;19.072;2023-11-22T13:01:23;100930.59;;;8.25;100.00
62111;BME280;48102;47.526;19.072;2023-11-22T13:04:26;100931.19;;;8.33;100.00
62111;BME280;48102;47.526;19.072;2023-11-22T13:07:31;100934.78;;;8.30;100.00
62111;BME280;48102;47.526;19.072;2023-11-22T13:10:34;100945.59;;;8.49;100.00
62111;BME280;48102;47.526;19.072;2023-11-22T13:13:38;100935.37;;;8.68;100.00
62111;BME280;48102;47.526;19.072;2023-11-22T13:16:41;100938.00;;;8.68;100.00
62111;BME280;48102;47.526;19.072;2023-11-22T13:19:45;100938.63;;;8.48;100.00
62111;BME280;48102;47.526;19.072;2023-11-22T13:22:52;100940.75;;;8.36;100.00
62111;BME280;48102;47.526;19.072;2023-11-22T13:25:56;100933.91;;;8.30;100.00
62111;BME280;48102;47.526;19.072;2023-11-22T13:28:58;100934.16;;;8.22;100.00
62111;BME280;48102;47.526;19.072;2023-11-22T13:32:01;100932.31;;;8.24;100.00
62111;BME280;48102;47.526;19.072;2023-11-22T13:35:05;100932.47;;;8.20;100.00
62111;BME280;48102;47.526;19.072;2023-11-22T13:38:15;100923.06;;;8.13;100.00
62111;BME280;48102;47.526;19.072;2023-11-22T13:41:18;100928.31;;;8.13;100.00
62111;BME280;48102;47.526;19.072;2023-11-22T13:44:22;100933.56;;;8.13;100.00
62111;BME280;48102;47.526;19.072;2023-11-22T13:47:24;100943.88;;;8.19;100.00
62111;BME280;48102;47.526;19.072;2023-11-22T13:50:27;100958.28;;;8.05;100.00
62111;BME280;48102;47.526;19.072;2023-11-22T13:53:30;100954.06;;;8.00;100.00
62111;BME280;48102;47.526;19.072;2023-11-22T13:56:38;100951.91;;;8.14;100.00
62111;BME280;48102;47.526;19.072;2023-11-22T13:59:41;100971.38;;;8.37;100.00
62111;BME280;48102;47.526;19.072;2023-11-22T14:02:45;100970.47;;;8.66;100.00
62111;BME280;48102;47.526;19.072;2023-11-22T14:05:49;100977.66;;;8.87;100.00
62111;BME280;48102;47.526;19.072;2023-11-22T14:08:52;100972.72;;;9.04;100.00
62111;BME280;48102;47.526;19.072;2023-11-22T14:11:56;100963.94;;;9.55;100.00
62111;BME280;48102;47.526;19.072;2023-11-22T14:14:59;100965.66;;;10.50;94.05
62111;BME280;48102;47.526;19.072;2023-11-22T14:18:03;100954.34;;;11.53;84.35
62111;BME280;48102;47.526;19.072;2023-11-22T14:21:06;100947.00;;;12.37;74.84
62111;BME280;48102;47.526;19.072;2023-11-22T14:24:10;100959.41;;;11.58;76.71
62111;BME280;48102;47.526;19.072;2023-11-22T14:27:13;100966.53;;;10.04;87.60
62111;BME280;48102;47.526;19.072;2023-11-22T14:30:16;100982.56;;;8.98;100.00
62111;BME280;48102;47.526;19.072;2023-11-22T14:33:20;100983.13;;;8.23;100.00
62111;BME280;48102;47.526;19.072;2023-11-22T14:36:24;100985.53;;;7.70;100.00
62111;BME280;48102;47.526;19.072;2023-11-22T14:39:29;100991.62;;;7.38;100.00
62111;BME280;48102;47.526;19.072;2023-11-22T14:42:32;101003.00;;;7.03;100.00
62111;BME280;48102;47.526;19.072;2023-11-22T14:45:35;101002.75;;;6.78;100.00
62111;BME280;48102;47.526;19.072;2023-11-22T14:48:40;101009.94;;;6.70;100.00
62111;BME280;48102;47.526;19.072;2023-11-22T14:51:42;101018.12;;;6.54;100.00
62111;BME280;48102;47.526;19.072;2023-11-22T14:54:47;101012.44;;;6.36;100.00
62111;BME280;48102;47.526;19.072;2023-11-22T14:57:51;101022.47;;;6.15;100.00
62111;BME280;48102;47.526;19.072;2023-11-22T15:01:00;101021.03;;;6.00;100.00
62111;BME280;48102;47.526;19.072;2023-11-22T15:04:03;101012.53;;;5.86;100.00
62111;BME280;48102;47.526;19.072;2023-11-22T15:07:08;101010.97;;;5.79;100.00
62111;BME280;48102;47.526;19.072;2023-11-22T15:10:11;101028.69;;;5.63;100.00
62111;BME280;48102;47.526;19.072;2023-11-22T15:13:14;101028.47;;;5.74;100.00
62111;BME280;48102;47.526;19.072;2023-11-22T15:16:20;101020.75;;;5.68;100.00
62111;BME280;48102;47.526;19.072;2023-11-22T15:19:23;101027.69;;;5.70;100.00
62111;BME280;48102;47.526;19.072;2023-11-22T15:22:27;101042.00;;;5.49;100.00
62111;BME280;48102;47.526;19.072;2023-11-22T15:25:30;101048.25;;;5.41;100.00
62111;BME280;48102;47.526;19.072;2023-11-22T15:28:32;101045.81;;;5.32;100.00
62111;BME280;48102;47.526;19.072;2023-11-22T15:31:38;101042.25;;;5.34;100.00
62111;BME280;48102;47.526;19.072;2023-11-22T15:34:43;101050.94;;;5.35;100.00
62111;BME280;48102;47.526;19.072;2023-11-22T15:37:49;101059.00;;;5.24;100.00
62111;BME280;48102;47.526;19.072;2023-11-22T15:40:52;101068.72;;;5.13;100.00
62111;BME280;48102;47.526;19.072;2023-11-22T15:43:57;101056.59;;;5.09;100.00
62111;BME280;48102;47.526;19.072;2023-11-22T15:47:00;101071.41;;;5.10;100.00
62111;BME280;48102;47.526;19.072;2023-11-22T15:50:08;101078.53;;;4.98;100.00
62111;BME280;48102;47.526;19.072;2023-11-22T15:53:13;101079.38;;;5.00;100.00
62111;BME280;48102;47.526;19.072;2023-11-22T15:56:16;101099.38;;;5.03;100.00
62111;BME280;48102;47.526;19.072;2023-11-22T15:59:19;101108.25;;;4.90;100.00
62111;BME280;48102;47.526;19.072;2023-11-22T16:02:22;101121.28;;;4.93;100.00
62111;BME280;48102;47.526;19.072;2023-11-22T16:05:25;101121.97;;;5.06;100.00
62111;BME280;48102;47.526;19.072;2023-11-22T16:08:28;101129.72;;;5.12;100.00
62111;BME280;48102;47.526;19.072;2023-11-22T16:11:32;101124.44;;;5.15;100.00
62111;BME280;48102;47.526;19.072;2023-11-22T16:14:35;101143.66;;;5.09;100.00
62111;BME280;48102;47.526;19.072;2023-11-22T16:17:39;101143.75;;;5.04;100.00
62111;BME280;48102;47.526;19.072;2023-11-22T16:20:42;101147.41;;;4.93;100.00
62111;BME280;48102;47.526;19.072;2023-11-22T16:23:45;101158.97;;;4.75;100.00
62111;BME280;48102;47.526;19.072;2023-11-22T16:26:48;101160.81;;;4.67;100.00
62111;BME280;48102;47.526;19.072;2023-11-22T16:29:51;101164.31;;;4.64;100.00
